createdAt,value
2024-04-26T07:08:43.873Z,11.60
2024-04-26T07:13:48.188Z,10.70
2024-04-26T07:16:19.880Z,11.40
2024-04-26T07:18:50.264Z,11.40
2024-04-26T07:21:20.375Z,11.40
2024-04-26T07:23:50.327Z,11.30
2024-04-26T07:26:21.494Z,11.40
2024-04-26T07:28:54.366Z,11.30
2024-04-26T07:31:25.306Z,11.40
2024-04-26T07:33:55.589Z,11.10
2024-04-26T07:36:27.138Z,10.90
2024-04-26T07:38:57.240Z,11.00
2024-04-26T07:41:27.511Z,10.70
2024-04-26T07:44:00.626Z,10.90
2024-04-26T07:46:30.662Z,10.90
2024-04-26T07:49:01.348Z,11.00
2024-04-26T07:51:31.866Z,11.40
2024-04-26T07:54:02.107Z,11.80
2024-04-26T08:01:38.727Z,12.00
2024-04-26T08:04:09.181Z,12.10
2024-04-26T08:06:39.612Z,12.10
2024-04-26T08:09:09.799Z,12.20
2024-04-26T08:11:41.105Z,12.30
2024-04-26T08:14:14.264Z,12.00
2024-04-26T08:16:44.621Z,12.00
2024-04-26T08:19:15.242Z,12.20
2024-04-26T08:21:45.795Z,12.00
2024-04-26T08:24:16.192Z,11.90
2024-04-26T08:26:47.215Z,11.80
2024-04-26T08:29:20.171Z,11.70
2024-04-26T08:31:50.335Z,12.00
2024-04-26T08:34:25.926Z,12.10
2024-04-26T08:36:56.603Z,12.10
2024-04-26T08:39:27.670Z,11.90
2024-04-26T08:41:59.412Z,11.60
2024-04-26T08:44:33.439Z,11.60
2024-04-26T08:47:04.958Z,11.60
2024-04-26T09:46:35.802Z,11.50
2024-04-26T09:49:11.635Z,13.80
2024-04-26T09:51:48.771Z,13.70
2024-04-26T09:54:20.182Z,13.80
2024-04-26T09:56:52.859Z,13.80
2024-04-26T09:59:24.456Z,13.60
2024-04-26T10:02:02.379Z,13.60
2024-04-26T10:04:36.435Z,13.50
2024-04-26T10:07:18.448Z,13.50
2024-04-26T10:09:58.596Z,13.30
2024-04-26T10:12:30.850Z,13.50
2024-04-26T10:15:13.768Z,13.70
2024-04-26T10:17:54.244Z,13.90
2024-04-26T14:38:23.557Z,14.00
2024-04-26T15:11:23.149Z,15.80
2024-04-26T15:13:53.574Z,15.10
2024-04-26T15:16:24.629Z,14.90
2024-04-26T15:18:55.218Z,14.90
2024-04-26T15:21:25.470Z,14.70
2024-04-26T15:23:58.629Z,14.70
2024-04-26T15:26:32.139Z,14.70
2024-04-26T15:29:04.633Z,14.80
2024-04-26T15:31:38.167Z,14.80
2024-04-26T15:34:11.518Z,14.90
2024-04-26T15:36:46.821Z,14.70
2024-04-26T15:39:20.737Z,14.60
2024-04-26T15:41:56.458Z,14.60
2024-04-26T15:44:27.200Z,14.70
2024-04-26T15:46:58.024Z,14.50
2024-04-26T15:49:28.280Z,14.50
2024-04-26T15:51:58.433Z,14.40
2024-04-26T15:54:31.621Z,14.40
2024-04-26T15:57:02.485Z,14.50
2024-04-26T15:59:40.822Z,14.60
2024-04-26T16:02:11.554Z,14.90
2024-04-26T16:04:42.947Z,15.00
2024-04-26T16:07:13.376Z,15.00
2024-04-26T16:09:46.518Z,15.00
2024-04-26T16:12:17.557Z,15.00
2024-04-26T16:14:47.919Z,15.00
2024-04-26T16:17:18.674Z,14.90
2024-04-26T16:19:51.425Z,14.80
2024-04-26T16:22:24.419Z,14.50
2024-04-26T16:24:59.872Z,14.30
2024-04-26T16:27:32.508Z,14.10
2024-04-26T16:30:06.498Z,14.00
2024-04-26T16:32:36.848Z,14.00
2024-04-26T16:35:08.089Z,14.00
2024-04-26T16:37:38.426Z,14.10
2024-04-26T16:40:12.454Z,14.00
2024-04-26T16:42:42.643Z,14.20
2024-04-26T16:45:13.418Z,14.20
2024-04-26T16:47:46.892Z,14.20
2024-04-26T16:50:19.868Z,14.20
2024-04-26T16:52:59.972Z,14.00
2024-04-26T16:55:38.299Z,13.90
2024-04-26T16:58:08.684Z,13.80
2024-04-26T18:12:30.805Z,13.60
2024-04-26T18:15:03.388Z,11.20
2024-04-26T18:17:34.756Z,11.10
2024-04-26T18:20:04.938Z,11.00
2024-04-26T18:22:35.197Z,10.90
2024-04-26T18:25:05.714Z,10.90
2024-04-26T18:27:39.905Z,10.80
2024-04-26T18:30:12.339Z,10.60
2024-04-26T18:32:42.739Z,10.60
2024-04-26T18:35:17.838Z,10.60
2024-04-26T18:37:50.967Z,10.50
2024-04-26T18:40:25.598Z,10.50
2024-04-26T18:43:02.766Z,10.40
2024-04-26T18:45:37.492Z,10.30
2024-04-26T18:48:11.137Z,10.30
2024-04-26T18:50:44.177Z,10.20
2024-04-26T18:53:18.558Z,10.20
2024-04-26T18:55:48.609Z,10.10
2024-04-26T18:58:24.984Z,10.20
2024-04-26T19:00:55.848Z,10.20
2024-04-26T19:03:26.349Z,10.20
2024-04-26T19:05:56.997Z,10.10
2024-04-26T19:08:27.719Z,10.10
2024-04-26T19:10:59.560Z,10.00
2024-04-26T19:13:35.281Z,10.00
2024-04-26T19:16:10.319Z,9.90
2024-04-26T19:18:44.820Z,9.90
2024-04-26T19:21:18.438Z,9.90
2024-04-26T19:23:51.051Z,9.90
2024-04-26T19:26:27.742Z,9.90
2024-04-26T19:29:02.954Z,9.90
2024-04-26T19:31:38.590Z,9.90
2024-04-26T19:34:10.306Z,9.90
2024-04-26T19:36:40.520Z,9.90
2024-04-26T19:39:14.063Z,9.90
2024-04-26T19:41:47.763Z,10.00
2024-04-26T20:48:13.404Z,9.90
2024-04-26T20:50:46.082Z,9.60
2024-04-26T20:53:21.638Z,9.50
2024-04-26T20:55:55.148Z,9.50
2024-04-26T20:58:29.043Z,9.60
2024-04-26T21:01:03.294Z,9.60
2024-04-26T21:03:37.630Z,9.60
2024-04-26T21:06:09.067Z,9.60
2024-04-26T21:08:41.381Z,9.60
2024-04-26T21:11:15.047Z,9.60
2024-04-26T21:13:46.687Z,9.60
2024-04-26T21:16:20.299Z,9.60
2024-04-26T21:18:51.883Z,9.50
2024-04-26T21:21:27.006Z,9.40
2024-04-26T21:23:57.260Z,9.40
2024-04-26T21:26:29.053Z,9.40
2024-04-26T21:29:01.898Z,9.30
2024-04-26T21:31:35.057Z,9.30
2024-04-26T21:34:05.255Z,9.30
2024-04-26T21:36:38.048Z,9.30
2024-04-26T21:39:08.486Z,9.30
2024-04-26T21:41:38.648Z,9.20
2024-04-26T21:44:09.196Z,9.10
2024-04-26T21:46:52.680Z,9.20
2024-04-26T21:49:23.728Z,9.10
2024-04-26T21:51:54.343Z,9.10
2024-04-26T21:54:25.340Z,9.10
2024-04-26T21:56:58.101Z,9.00
2024-04-26T21:59:32.090Z,9.00
2024-04-26T22:02:06.034Z,9.00
2024-04-26T22:04:40.143Z,9.00
2024-04-26T22:07:11.066Z,8.90
2024-04-26T22:09:41.155Z,8.90
2024-04-26T22:12:11.962Z,8.90
2024-04-26T22:14:42.764Z,8.90
2024-04-26T22:17:15.944Z,8.90
2024-04-26T22:19:46.364Z,8.90
2024-04-26T22:22:16.504Z,8.90
2024-04-26T22:24:46.687Z,8.90
2024-04-26T22:27:17.299Z,8.90
2024-04-26T22:29:47.434Z,8.90
